Thurston, Ohio
Current Conditions -  °F | °C
As of 10:23 PM on Monday 26 Jan 2015 (Local Time) from KLHQ Reporting Station
Haze Haze  
Wind Chill:   Ceiling: 1900
Heat Index:   Visibility: 5mi
Dew Point:   Wind: 0mph
Humidity: 83%   Direction: NA
Pressure: 29.95"   Gusts: NA
Location:  39.84°N, 82.55°W
Report Text: KLHQ 270323Z AUTO 00000KT 5SM BR BKN019 M14/M17 A2995 RMK AO2 T11441167
Loading
Personal Weather Stations






























Interactive Weather Map New forecast layout! Learn more

10-Day Weather Forecast

Advertisements
Track Severe Weather on mobile